createdAt,value
2018-05-02T00:01:09.395Z,6.62
2018-05-02T00:03:37.815Z,7.47
2018-05-02T00:06:07.114Z,8.05
2018-05-02T00:08:36.276Z,10.48
2018-05-02T00:11:05.417Z,9.68
2018-05-02T00:13:34.628Z,6.82
2018-05-02T00:16:03.782Z,7.45
2018-05-02T00:18:32.210Z,8.02
2018-05-02T00:21:01.360Z,6.65
2018-05-02T00:23:29.777Z,8.95
2018-05-02T00:25:58.173Z,7.03
2018-05-02T00:28:27.351Z,7.60
2018-05-02T00:30:55.762Z,7.55
2018-05-02T00:33:24.943Z,8.98
2018-05-02T00:35:53.433Z,8.32
2018-05-02T00:38:21.829Z,9.48
2018-05-02T00:40:50.981Z,10.68
2018-05-02T00:43:19.406Z,9.50
2018-05-02T00:45:48.594Z,9.80
2018-05-02T00:48:17.005Z,8.27
2018-05-02T00:50:46.166Z,8.50
2018-05-02T00:53:14.573Z,11.23
2018-05-02T00:55:43.770Z,8.80
2018-05-02T00:58:12.234Z,8.88
2018-05-02T01:00:40.630Z,8.98
2018-05-02T01:03:09.064Z,10.90
2018-05-02T01:05:37.451Z,8.77
2018-05-02T01:08:05.849Z,9.27
2018-05-02T01:10:34.268Z,11.20
2018-05-02T01:13:03.510Z,9.48
2018-05-02T01:15:31.928Z,9.70
2018-05-02T01:18:00.347Z,9.50
2018-05-02T01:20:29.586Z,9.63
2018-05-02T01:22:58.002Z,8.98
2018-05-02T01:25:26.413Z,9.43
2018-05-02T01:27:55.610Z,8.48
2018-05-02T01:30:24.033Z,7.85
2018-05-02T01:32:52.443Z,9.15
2018-05-02T01:35:20.870Z,11.20
2018-05-02T01:37:50.059Z,13.23
2018-05-02T01:40:18.470Z,8.10
2018-05-02T01:42:46.943Z,8.52
2018-05-02T01:45:16.130Z,8.70
2018-05-02T01:47:44.572Z,7.97
2018-05-02T01:50:13.827Z,7.62
2018-05-02T01:52:43.000Z,9.65
2018-05-02T01:55:11.406Z,8.48
2018-05-02T01:57:40.552Z,8.75
2018-05-02T02:00:08.974Z,8.13
2018-05-02T02:02:37.432Z,8.55
2018-05-02T02:05:05.885Z,9.55
2018-05-02T02:07:34.308Z,13.45
2018-05-02T02:10:02.707Z,8.85
2018-05-02T02:12:31.161Z,9.30
2018-05-02T02:14:59.600Z,11.27
2018-05-02T02:17:28.762Z,8.00
2018-05-02T02:19:57.156Z,9.38
2018-05-02T02:22:25.681Z,11.85
2018-05-02T02:24:54.089Z,11.15
2018-05-02T02:27:22.507Z,9.75
2018-05-02T02:29:50.985Z,12.48
2018-05-02T02:32:19.378Z,10.15
2018-05-02T02:34:47.794Z,10.48
2018-05-02T02:37:16.959Z,9.55
2018-05-02T02:39:45.356Z,9.65
2018-05-02T02:42:13.784Z,10.43
2018-05-02T02:44:42.174Z,10.40
2018-05-02T02:47:10.596Z,9.80
2018-05-02T02:49:39.002Z,10.27
2018-05-02T02:52:08.158Z,12.07
2018-05-02T02:54:36.579Z,10.05
2018-05-02T02:57:04.984Z,10.90
2018-05-02T02:59:34.129Z,10.05
2018-05-02T03:02:02.536Z,10.40
2018-05-02T03:04:30.928Z,10.40
2018-05-02T03:06:59.364Z,11.50
2018-05-02T03:09:27.785Z,11.85
2018-05-02T03:11:56.263Z,14.85
2018-05-02T03:14:24.676Z,12.55
2018-05-02T03:16:53.919Z,13.10
2018-05-02T03:19:22.326Z,11.73
2018-05-02T03:21:50.723Z,11.93
2018-05-02T03:24:19.118Z,10.30
2018-05-02T03:26:47.498Z,12.30
2018-05-02T03:29:15.968Z,9.68
2018-05-02T03:31:44.410Z,9.98
2018-05-02T03:34:12.848Z,11.52
2018-05-02T03:36:42.018Z,9.15
2018-05-02T03:39:10.449Z,9.73
2018-05-02T03:41:39.610Z,9.15
2018-05-02T03:44:08.019Z,11.00
2018-05-02T03:46:36.518Z,10.23
2018-05-02T03:49:05.687Z,10.38
2018-05-02T03:51:34.127Z,11.02
2018-05-02T03:54:02.582Z,11.40
2018-05-02T03:56:31.752Z,10.15
2018-05-02T03:59:00.193Z,9.75
2018-05-02T04:01:46.544Z,9.93
2018-05-02T04:04:33.455Z,10.27
2018-05-02T04:07:16.719Z,9.77
2018-05-02T04:09:45.135Z,11.20
2018-05-02T04:12:15.428Z,10.63
2018-05-02T04:14:43.899Z,9.95
2018-05-02T04:17:12.277Z,10.13
2018-05-02T04:19:41.414Z,11.95
2018-05-02T04:22:09.810Z,10.80
2018-05-02T04:24:38.499Z,12.32
2018-05-02T04:27:06.931Z,10.85
2018-05-02T04:29:36.169Z,10.65
2018-05-02T04:32:04.562Z,10.27
2018-05-02T04:34:33.009Z,9.40
2018-05-02T04:37:02.173Z,10.43
2018-05-02T04:39:30.616Z,11.07
2018-05-02T04:41:59.040Z,12.23
2018-05-02T04:44:27.785Z,14.35
2018-05-02T04:46:56.187Z,10.18
2018-05-02T04:49:24.591Z,11.32
2018-05-02T04:51:52.999Z,19.35
2018-05-02T04:54:22.146Z,9.80
2018-05-02T04:56:50.534Z,12.60
2018-05-02T04:59:18.948Z,10.15
2018-05-02T05:01:47.418Z,8.52
2018-05-02T05:04:15.838Z,9.93
2018-05-02T05:06:45.071Z,8.35
2018-05-02T05:09:13.446Z,8.57
2018-05-02T05:11:41.833Z,8.52
2018-05-02T05:14:10.223Z,8.70
2018-05-02T05:16:38.663Z,8.55
2018-05-02T05:19:07.051Z,8.45
2018-05-02T05:21:35.477Z,10.48
2018-05-02T05:24:03.848Z,9.93
2018-05-02T05:26:32.244Z,7.85
2018-05-02T05:29:00.629Z,10.95
2018-05-02T05:31:29.015Z,10.40
2018-05-02T05:33:57.416Z,8.02
2018-05-02T05:36:25.874Z,9.50
2018-05-02T05:38:54.252Z,9.02
2018-05-02T05:41:22.665Z,8.93
2018-05-02T05:43:51.057Z,10.18
2018-05-02T05:46:19.454Z,9.30
2018-05-02T05:48:47.932Z,9.30
2018-05-02T05:51:16.363Z,9.30
2018-05-02T05:53:44.770Z,8.50
2018-05-02T05:56:13.317Z,8.95
2018-05-02T05:58:41.775Z,8.80
2018-05-02T06:01:10.164Z,9.15
2018-05-02T06:03:38.853Z,8.90
2018-05-02T06:06:08.043Z,9.40
2018-05-02T06:08:36.445Z,10.30
2018-05-02T06:11:05.605Z,8.75
2018-05-02T06:13:35.765Z,10.20
2018-05-02T06:16:04.156Z,10.45
2018-05-02T06:18:33.501Z,10.35
2018-05-02T06:21:01.891Z,9.65
2018-05-02T06:23:30.290Z,13.70
2018-05-02T06:25:58.685Z,9.13
2018-05-02T06:28:27.099Z,8.35
2018-05-02T06:30:56.246Z,9.55
2018-05-02T06:33:24.670Z,8.95
2018-05-02T06:35:53.847Z,10.30
2018-05-02T06:38:22.271Z,10.63
2018-05-02T06:40:51.609Z,11.70
2018-05-02T06:43:20.033Z,10.43
2018-05-02T06:45:48.475Z,7.53
2018-05-02T06:48:16.899Z,8.83
2018-05-02T06:50:45.314Z,9.57
2018-05-02T06:53:14.468Z,7.83
2018-05-02T06:55:42.938Z,7.33
2018-05-02T06:58:14.550Z,7.53
2018-05-02T07:00:43.798Z,12.77
2018-05-02T07:03:12.168Z,9.23
2018-05-02T07:05:40.591Z,6.67
2018-05-02T07:08:09.983Z,8.67
2018-05-02T07:10:38.378Z,6.40
2018-05-02T07:13:07.082Z,7.80
2018-05-02T07:15:35.474Z,7.30
2018-05-02T07:18:04.887Z,9.03
2018-05-02T07:20:34.055Z,7.30
2018-05-02T07:23:02.774Z,6.97
2018-05-02T07:25:31.941Z,6.93
2018-05-02T07:28:00.356Z,7.97
2018-05-02T07:30:28.834Z,8.23
2018-05-02T07:32:58.126Z,6.77
2018-05-02T07:35:26.441Z,8.70
2018-05-02T07:37:55.834Z,8.93
2018-05-02T07:40:25.953Z,7.13
2018-05-02T07:42:55.901Z,6.63
2018-05-02T07:45:26.304Z,7.20
2018-05-02T07:47:56.071Z,7.90
2018-05-02T07:50:24.592Z,11.20
2018-05-02T07:52:56.666Z,6.63
2018-05-02T07:55:25.123Z,6.13
2018-05-02T07:57:54.594Z,5.90
2018-05-02T08:00:23.011Z,9.57
2018-05-02T08:02:51.428Z,6.03
2018-05-02T08:05:20.010Z,7.70
2018-05-02T08:07:48.454Z,7.03
2018-05-02T08:10:17.357Z,6.20
2018-05-02T08:12:45.982Z,6.77
2018-05-02T08:15:14.410Z,6.40
2018-05-02T08:17:43.922Z,6.73
2018-05-02T08:20:13.252Z,7.67
2018-05-02T08:22:41.655Z,6.80
2018-05-02T08:25:10.154Z,11.00
2018-05-02T08:27:39.549Z,11.40
2018-05-02T08:30:10.496Z,12.00
2018-05-02T08:32:38.926Z,6.60
2018-05-02T08:35:08.076Z,7.07
2018-05-02T08:37:38.222Z,6.53
2018-05-02T08:40:06.623Z,21.83
2018-05-02T08:42:38.029Z,9.80
2018-05-02T08:45:06.763Z,6.60
2018-05-02T08:47:35.154Z,13.50
2018-05-02T08:50:03.817Z,6.97
2018-05-02T08:52:33.023Z,5.80
2018-05-02T08:55:02.172Z,7.50
2018-05-02T08:57:30.647Z,6.60
2018-05-02T08:59:59.017Z,9.50
2018-05-02T09:02:27.403Z,6.17
2018-05-02T09:04:55.830Z,9.90
2018-05-02T09:07:24.239Z,7.30
2018-05-02T09:09:55.479Z,9.23
2018-05-02T09:12:23.966Z,7.20
2018-05-02T09:14:53.199Z,4.73
2018-05-02T09:17:21.581Z,4.80
2018-05-02T09:19:50.914Z,6.00
2018-05-02T09:22:19.305Z,5.97
2018-05-02T09:24:47.958Z,5.23
2018-05-02T09:27:16.351Z,6.87
2018-05-02T09:29:45.459Z,7.93
2018-05-02T09:32:13.870Z,4.97
2018-05-02T09:34:42.244Z,5.57
2018-05-02T09:37:10.861Z,6.43
2018-05-02T09:39:40.015Z,4.90
2018-05-02T09:42:08.504Z,4.70
2018-05-02T09:44:37.773Z,5.53
2018-05-02T09:47:06.879Z,4.70
2018-05-02T09:49:35.255Z,7.00
2018-05-02T09:52:03.703Z,5.97
2018-05-02T09:54:32.862Z,7.57
2018-05-02T09:57:01.262Z,6.80
2018-05-02T09:59:29.662Z,6.23
2018-05-02T10:01:58.063Z,5.87
2018-05-02T10:04:26.652Z,5.17
2018-05-02T10:06:56.398Z,5.00
2018-05-02T10:09:24.813Z,4.50
2018-05-02T10:11:53.212Z,8.17
2018-05-02T10:14:21.677Z,8.30
2018-05-02T10:16:50.097Z,4.90
2018-05-02T10:19:18.481Z,5.40
2018-05-02T10:21:46.885Z,5.80
2018-05-02T10:24:16.037Z,8.87
2018-05-02T10:26:44.441Z,4.43
2018-05-02T10:29:12.834Z,4.37
2018-05-02T10:31:42.031Z,3.60
2018-05-02T10:34:10.467Z,4.70
2018-05-02T10:36:39.145Z,3.97
2018-05-02T10:39:07.535Z,6.13
2018-05-02T10:41:35.927Z,3.93
2018-05-02T10:44:04.334Z,4.13
2018-05-02T10:46:32.799Z,5.50
2018-05-02T10:49:01.581Z,3.00
2018-05-02T10:51:30.947Z,3.70
2018-05-02T10:53:59.337Z,3.43
2018-05-02T10:56:28.469Z,4.43
2018-05-02T10:58:57.417Z,3.70
2018-05-02T11:01:26.936Z,4.23
2018-05-02T11:03:56.659Z,3.60
2018-05-02T11:06:26.682Z,5.17
2018-05-02T11:08:55.833Z,2.77
2018-05-02T11:11:25.139Z,3.10
2018-05-02T11:13:53.546Z,5.67
2018-05-02T11:16:22.972Z,2.37
2018-05-02T11:18:52.114Z,4.07
2018-05-02T11:21:20.551Z,4.30
2018-05-02T11:23:50.153Z,5.00
2018-05-02T11:26:18.595Z,5.43
2018-05-02T11:28:46.973Z,4.80
2018-05-02T11:31:15.749Z,8.30
2018-05-02T11:33:44.176Z,4.63
2018-05-02T11:36:12.918Z,4.20
2018-05-02T11:38:41.442Z,4.53
2018-05-02T11:41:09.844Z,6.47
2018-05-02T11:43:38.319Z,3.30
2018-05-02T11:46:06.749Z,3.47
2018-05-02T11:48:35.156Z,3.57
2018-05-02T11:51:03.549Z,5.60
2018-05-02T11:53:32.002Z,4.23
2018-05-02T11:56:00.451Z,4.97
2018-05-02T11:58:28.851Z,5.13
2018-05-02T12:00:58.013Z,4.20
2018-05-02T12:03:26.457Z,4.17
2018-05-02T12:05:54.888Z,7.90
2018-05-02T12:08:23.300Z,3.43
2018-05-02T12:10:51.717Z,4.10
2018-05-02T12:13:20.121Z,7.73
2018-05-02T12:15:48.549Z,4.07
2018-05-02T12:18:16.934Z,3.53
2018-05-02T12:20:45.319Z,7.13
2018-05-02T12:23:13.702Z,8.10
2018-05-02T12:25:42.114Z,7.83
2018-05-02T12:28:10.563Z,3.70
2018-05-02T12:30:38.936Z,7.67
2018-05-02T12:33:07.330Z,3.23
2018-05-02T12:35:35.717Z,3.13
2018-05-02T12:38:05.016Z,3.50
2018-05-02T12:40:34.178Z,6.27
2018-05-02T12:43:02.654Z,4.30
2018-05-02T12:45:31.094Z,8.37
2018-05-02T12:48:00.270Z,3.97
2018-05-02T12:50:28.764Z,3.10
2018-05-02T12:52:57.303Z,5.13
2018-05-02T12:55:25.740Z,7.13
2018-05-02T12:57:54.154Z,3.53
2018-05-02T13:00:23.378Z,9.77
2018-05-02T13:02:51.789Z,4.30
2018-05-02T13:05:20.201Z,3.63
2018-05-02T13:07:48.605Z,4.10
2018-05-02T13:10:17.758Z,4.70
2018-05-02T13:12:46.169Z,8.00
2018-05-02T13:15:14.594Z,3.50
2018-05-02T13:17:43.002Z,3.97
2018-05-02T13:20:11.395Z,7.30
2018-05-02T13:22:39.844Z,5.10
2018-05-02T13:25:08.248Z,4.30
2018-05-02T13:27:36.626Z,2.20
2018-05-02T13:30:04.994Z,4.30
2018-05-02T13:32:33.431Z,4.23
2018-05-02T13:35:02.642Z,11.00
2018-05-02T13:37:31.037Z,15.60
2018-05-02T13:40:00.219Z,4.57
2018-05-02T13:42:28.614Z,2.70
2018-05-02T13:44:57.002Z,2.33
2018-05-02T13:47:25.413Z,4.47
2018-05-02T13:49:53.797Z,3.27
2018-05-02T13:52:22.257Z,4.00
2018-05-02T13:54:51.443Z,3.20
2018-05-02T13:57:19.854Z,4.20
2018-05-02T13:59:48.254Z,2.30
2018-05-02T14:02:16.665Z,7.30
2018-05-02T14:04:45.078Z,4.00
2018-05-02T14:07:13.449Z,3.17
2018-05-02T14:09:42.093Z,3.43
2018-05-02T14:12:10.485Z,4.60
2018-05-02T14:14:38.897Z,2.80
2018-05-02T14:17:07.319Z,4.90
2018-05-02T14:19:36.475Z,3.33
2018-05-02T14:22:04.857Z,2.50
2018-05-02T14:24:33.289Z,4.80
2018-05-02T14:27:02.439Z,3.87
2018-05-02T14:29:30.826Z,4.10
2018-05-02T14:31:59.233Z,3.70
2018-05-02T14:34:27.670Z,4.90
2018-05-02T14:36:56.113Z,2.90
2018-05-02T14:39:24.495Z,4.40
2018-05-02T14:41:53.635Z,2.60
2018-05-02T14:44:22.125Z,3.00
2018-05-02T14:46:50.523Z,3.60
2018-05-02T14:49:18.993Z,3.27
2018-05-02T14:51:47.426Z,2.40
2018-05-02T14:54:15.834Z,3.53
2018-05-02T14:56:45.649Z,5.33
2018-05-02T14:59:14.821Z,5.93
2018-05-02T15:01:44.202Z,5.17
2018-05-02T15:04:12.619Z,5.53
2018-05-02T15:06:41.044Z,3.27
2018-05-02T15:09:09.441Z,7.00
2018-05-02T15:11:38.013Z,2.30
2018-05-02T15:14:06.401Z,3.93
2018-05-02T15:16:34.780Z,6.43
2018-05-02T15:19:03.205Z,3.47
2018-05-02T15:21:31.710Z,6.07
2018-05-02T15:24:00.122Z,3.60
2018-05-02T15:26:28.617Z,2.90
2018-05-02T15:28:57.000Z,4.10
2018-05-02T15:31:25.391Z,4.13
2018-05-02T15:33:53.878Z,2.80
2018-05-02T15:36:22.370Z,2.60
2018-05-02T15:38:50.761Z,3.37
2018-05-02T15:41:19.271Z,1.80
2018-05-02T15:43:47.691Z,4.23
2018-05-02T15:46:16.845Z,2.50
2018-05-02T15:48:45.322Z,1.40
2018-05-02T15:51:13.826Z,2.40
2018-05-02T15:53:42.272Z,2.60
2018-05-02T15:56:11.613Z,2.00
2018-05-02T15:58:40.709Z,4.80
2018-05-02T16:01:09.134Z,4.90
2018-05-02T16:03:38.316Z,2.40
2018-05-02T16:06:06.740Z,3.43
2018-05-02T16:08:35.124Z,2.87
2018-05-02T16:11:04.783Z,1.63
2018-05-02T16:13:33.194Z,4.33
2018-05-02T16:16:02.365Z,2.60
2018-05-02T16:18:30.801Z,2.60
2018-05-02T16:20:59.175Z,2.90
2018-05-02T16:23:27.566Z,2.33
2018-05-02T16:25:56.158Z,2.80
2018-05-02T16:28:24.548Z,1.63
2018-05-02T16:30:52.985Z,3.13
2018-05-02T16:33:21.456Z,3.07
2018-05-02T16:35:49.842Z,2.20
2018-05-02T16:38:18.254Z,1.87
2018-05-02T16:40:47.418Z,2.33
2018-05-02T16:43:15.899Z,2.63
2018-05-02T16:45:44.292Z,2.27
2018-05-02T16:48:12.707Z,1.90
2018-05-02T16:50:41.854Z,5.07
2018-05-02T16:53:10.257Z,4.90
2018-05-02T16:55:38.671Z,2.80
2018-05-02T16:58:07.869Z,2.97
2018-05-02T17:00:37.091Z,3.47
2018-05-02T17:03:05.661Z,2.50
2018-05-02T17:05:34.832Z,2.43
2018-05-02T17:08:03.299Z,3.63
2018-05-02T17:10:31.752Z,2.93
2018-05-02T17:13:00.180Z,3.00
2018-05-02T17:15:28.653Z,3.47
2018-05-02T17:17:57.789Z,2.90
2018-05-02T17:20:26.196Z,3.80
2018-05-02T17:22:55.361Z,5.43
2018-05-02T17:25:23.782Z,8.93
2018-05-02T17:27:52.191Z,7.13
2018-05-02T17:30:20.585Z,3.17
2018-05-02T17:32:48.987Z,3.40
2018-05-02T17:35:18.024Z,4.20
2018-05-02T17:37:47.256Z,7.13
2018-05-02T17:40:15.654Z,1.87
2018-05-02T17:42:44.393Z,4.03
2018-05-02T17:45:13.567Z,3.17
2018-05-02T17:47:42.059Z,4.67
2018-05-02T17:50:10.541Z,3.60
2018-05-02T17:52:38.979Z,3.00
2018-05-02T17:55:07.381Z,4.23
2018-05-02T17:57:35.869Z,2.33
2018-05-02T18:00:04.257Z,1.47
2018-05-02T18:02:32.660Z,3.97
2018-05-02T18:05:01.100Z,3.90
2018-05-02T18:07:29.498Z,3.30
2018-05-02T18:09:58.034Z,3.63
2018-05-02T18:12:27.220Z,4.10
2018-05-02T18:14:55.656Z,3.00
2018-05-02T18:17:24.072Z,2.73
2018-05-02T18:19:52.487Z,2.90
2018-05-02T18:22:21.723Z,1.93
2018-05-02T18:24:50.412Z,2.63
2018-05-02T18:27:18.817Z,2.13
2018-05-02T18:29:47.248Z,3.80
2018-05-02T18:32:15.839Z,2.07
2018-05-02T18:34:44.990Z,3.70
2018-05-02T18:37:13.407Z,4.70
2018-05-02T18:39:41.827Z,2.80
2018-05-02T18:42:11.755Z,1.90
2018-05-02T18:44:40.196Z,4.00
2018-05-02T18:47:08.688Z,3.10
2018-05-02T18:49:37.218Z,3.60
2018-05-02T18:52:05.601Z,1.80
2018-05-02T18:54:33.985Z,4.70
2018-05-02T18:57:02.462Z,2.90
2018-05-02T18:59:30.853Z,3.20
2018-05-02T19:01:59.400Z,2.97
2018-05-02T19:04:28.609Z,4.33
2018-05-02T19:06:57.786Z,6.03
2018-05-02T19:09:27.708Z,3.30
2018-05-02T19:11:56.925Z,2.60
2018-05-02T19:14:26.131Z,4.67
2018-05-02T19:16:55.317Z,6.73
2018-05-02T19:19:29.236Z,4.63
2018-05-02T19:21:58.418Z,2.57
2018-05-02T19:27:26.982Z,2.00
2018-05-02T19:29:55.409Z,2.67
2018-05-02T19:32:30.602Z,3.47
2018-05-02T19:34:59.035Z,2.03
2018-05-02T19:37:28.430Z,2.80
2018-05-02T19:43:07.650Z,3.97
2018-05-02T19:45:36.048Z,3.33
2018-05-02T19:48:04.455Z,3.43
2018-05-02T19:50:34.567Z,3.83
2018-05-02T19:53:04.677Z,3.60
2018-05-02T19:55:33.875Z,5.20
2018-05-02T19:58:02.278Z,2.80
2018-05-02T20:00:36.922Z,6.20
2018-05-02T20:03:05.320Z,4.80
2018-05-02T20:05:33.766Z,7.27
2018-05-02T20:11:10.680Z,2.97
2018-05-02T20:13:44.675Z,11.70
2018-05-02T20:16:13.058Z,6.13
2018-05-02T20:18:41.486Z,7.10
2018-05-02T20:21:09.936Z,4.03
2018-05-02T20:23:38.343Z,4.70
2018-05-02T20:26:06.773Z,3.23
2018-05-02T20:28:35.940Z,3.73
2018-05-02T20:31:04.399Z,4.10
2018-05-02T20:33:32.952Z,6.47
2018-05-02T20:36:02.150Z,7.73
2018-05-02T20:38:31.345Z,4.57
2018-05-02T20:41:00.539Z,7.07
2018-05-02T20:43:28.971Z,3.27
2018-05-02T20:45:57.390Z,4.47
2018-05-02T20:48:25.842Z,4.07
2018-05-02T20:50:54.253Z,5.57
2018-05-02T20:53:22.662Z,8.40
2018-05-02T20:55:51.102Z,3.83
2018-05-02T20:58:19.553Z,4.50
2018-05-02T21:00:48.758Z,7.03
2018-05-02T21:03:17.970Z,3.27
2018-05-02T21:05:46.372Z,4.07
2018-05-02T21:08:14.811Z,6.13
2018-05-02T21:10:43.994Z,2.97
2018-05-02T21:13:12.409Z,3.13
2018-05-02T21:15:40.837Z,4.53
2018-05-02T21:18:09.254Z,3.80
2018-05-02T21:20:37.681Z,3.63
2018-05-02T21:23:06.097Z,7.90
2018-05-02T21:25:34.553Z,5.93
2018-05-02T21:28:02.978Z,4.00
2018-05-02T21:30:31.534Z,4.10
2018-05-02T21:32:59.938Z,4.63
2018-05-02T21:35:28.958Z,4.27
2018-05-02T21:37:57.386Z,6.53
2018-05-02T21:40:25.988Z,7.20
2018-05-02T21:42:54.424Z,5.53
2018-05-02T21:45:23.594Z,4.27
2018-05-02T21:47:52.135Z,5.90
2018-05-02T21:50:20.593Z,5.03
2018-05-02T21:52:49.902Z,6.80
2018-05-02T21:55:19.086Z,6.00
2018-05-02T21:57:47.586Z,4.77
2018-05-02T22:00:16.915Z,9.03
2018-05-02T22:02:45.318Z,5.10
2018-05-02T22:05:13.760Z,4.40
2018-05-02T22:07:42.172Z,7.03
2018-05-02T22:10:10.584Z,5.40
2018-05-02T22:12:39.025Z,11.43
2018-05-02T22:15:08.216Z,4.13
2018-05-02T22:17:37.555Z,2.90
2018-05-02T22:20:06.015Z,5.70
2018-05-02T22:22:34.407Z,3.70
2018-05-02T22:25:02.807Z,3.47
2018-05-02T22:27:31.248Z,5.83
2018-05-02T22:29:59.988Z,11.67
2018-05-02T22:32:28.469Z,9.00
2018-05-02T22:34:57.207Z,5.40
2018-05-02T22:37:25.707Z,3.80
2018-05-02T22:39:54.154Z,4.27
2018-05-02T22:42:23.386Z,4.27
2018-05-02T22:44:51.790Z,4.83
2018-05-02T22:47:20.211Z,4.07
2018-05-02T22:49:48.631Z,4.10
2018-05-02T22:52:17.055Z,6.10
2018-05-02T22:54:45.456Z,6.03
2018-05-02T22:57:13.866Z,4.37
2018-05-02T22:59:42.282Z,5.60
2018-05-02T23:02:10.701Z,3.80
2018-05-02T23:04:39.185Z,5.67
2018-05-02T23:07:07.627Z,4.90
2018-05-02T23:09:37.815Z,7.37
2018-05-02T23:12:06.242Z,4.28
2018-05-02T23:14:35.431Z,4.45
2018-05-02T23:17:03.857Z,5.17
2018-05-02T23:19:32.263Z,6.23
2018-05-02T23:22:00.713Z,18.45
2018-05-02T23:24:29.128Z,7.53
2018-05-02T23:26:57.525Z,5.90
2018-05-02T23:29:26.166Z,5.70
2018-05-02T23:31:54.590Z,18.95
2018-05-02T23:34:23.078Z,8.77
2018-05-02T23:36:51.504Z,10.95
2018-05-02T23:39:20.706Z,6.15
2018-05-02T23:41:49.962Z,6.10
2018-05-02T23:44:18.397Z,5.20
2018-05-02T23:46:46.817Z,5.45
2018-05-02T23:49:15.234Z,8.38
2018-05-02T23:51:44.633Z,11.75
2018-05-02T23:54:13.067Z,5.40
2018-05-02T23:56:41.529Z,6.37
2018-05-02T23:59:10.729Z,4.90
